createdAt,value
2024-02-04T00:01:06.238Z,15.80
2024-02-04T00:03:33.832Z,16.38
2024-02-04T00:06:01.993Z,14.20
2024-02-04T00:08:33.761Z,15.73
2024-02-04T00:11:01.748Z,17.70
2024-02-04T00:13:29.473Z,14.23
2024-02-04T00:16:00.110Z,14.40
2024-02-04T00:18:28.340Z,16.17
2024-02-04T00:20:58.795Z,15.93
2024-02-04T00:23:28.417Z,14.63
2024-02-04T00:25:59.173Z,16.67
2024-02-04T00:28:28.694Z,14.50
2024-02-04T00:31:02.464Z,12.77
2024-02-04T00:33:32.232Z,14.95
2024-02-04T00:36:03.142Z,14.07
2024-02-04T00:38:31.020Z,14.77
2024-02-04T00:41:04.673Z,13.43
2024-02-04T00:43:32.144Z,13.95
2024-02-04T00:46:04.703Z,12.15
2024-02-04T00:48:32.707Z,14.23
2024-02-04T00:51:00.495Z,14.00
2024-02-04T00:53:35.418Z,12.45
2024-02-04T00:56:05.301Z,11.02
2024-02-04T00:58:40.673Z,12.05
2024-02-04T01:05:46.616Z,13.15
2024-02-04T01:08:14.606Z,13.02
2024-02-04T01:10:45.094Z,14.63
2024-02-04T01:13:12.778Z,12.80
2024-02-04T01:15:40.649Z,10.43
2024-02-04T01:18:08.578Z,13.60
2024-02-04T01:20:36.686Z,9.10
2024-02-04T01:23:04.376Z,12.35
2024-02-04T01:25:32.736Z,11.27
2024-02-04T01:28:02.766Z,12.70
2024-02-04T01:30:33.337Z,11.50
2024-02-04T01:33:05.417Z,10.93
2024-02-04T01:35:34.239Z,11.00
2024-02-04T01:38:04.397Z,10.60
2024-02-04T01:40:32.009Z,11.73
2024-02-04T01:42:59.742Z,11.23
2024-02-04T01:45:28.265Z,11.90
2024-02-04T01:47:56.380Z,11.07
2024-02-04T01:50:24.745Z,12.77
2024-02-04T01:52:53.647Z,10.38
2024-02-04T01:55:24.058Z,11.80
2024-02-04T01:57:51.683Z,8.90
2024-02-04T02:00:19.896Z,9.73
2024-02-04T02:02:50.026Z,9.73
2024-02-04T02:05:21.540Z,10.68
2024-02-04T02:10:22.224Z,10.07
2024-02-04T02:13:04.931Z,9.15
2024-02-04T02:15:37.509Z,8.52
2024-02-04T02:18:15.727Z,10.40
2024-02-04T02:20:54.553Z,9.00
2024-02-04T02:23:37.931Z,8.73
2024-02-04T02:26:09.992Z,9.70
2024-02-04T02:28:42.474Z,9.80
2024-02-04T02:31:10.112Z,8.75
2024-02-04T02:33:37.521Z,9.30
2024-02-04T02:36:12.156Z,8.70
2024-02-04T02:38:54.238Z,9.77
2024-02-04T02:41:22.333Z,9.10
2024-02-04T02:43:53.274Z,8.50
2024-02-04T02:46:21.140Z,10.02
2024-02-04T02:48:51.845Z,8.05
2024-02-04T02:51:19.609Z,8.93
2024-02-04T02:53:47.265Z,8.07
2024-02-04T02:56:17.322Z,8.27
2024-02-04T02:58:45.023Z,7.53
2024-02-04T03:01:12.836Z,7.38
2024-02-04T03:03:40.973Z,8.13
2024-02-04T03:06:16.513Z,9.00
2024-02-04T03:08:43.755Z,8.68
2024-02-04T03:11:11.563Z,9.60
2024-02-04T03:13:42.032Z,6.82
2024-02-04T03:16:13.600Z,7.13
2024-02-04T03:18:42.914Z,8.00
2024-02-04T03:21:17.402Z,7.57
2024-02-04T03:23:45.911Z,9.57
2024-02-04T03:26:22.756Z,7.72
2024-02-04T03:28:51.657Z,7.10
2024-02-04T03:31:25.166Z,7.47
2024-02-04T03:33:53.483Z,6.90
2024-02-04T03:36:25.387Z,6.22
2024-02-04T03:38:55.497Z,8.20
2024-02-04T03:41:25.982Z,7.90
2024-02-04T03:43:53.833Z,7.68
2024-02-04T03:46:21.503Z,7.30
2024-02-04T03:48:51.816Z,8.15
2024-02-04T03:51:21.853Z,6.50
2024-02-04T03:53:52.675Z,7.18
2024-02-04T03:56:20.378Z,6.50
2024-02-04T03:58:51.605Z,5.80
2024-02-04T04:01:19.451Z,6.68
2024-02-04T04:03:50.154Z,6.50
2024-02-04T04:06:20.303Z,6.22
2024-02-04T04:08:48.109Z,5.63
2024-02-04T04:11:20.213Z,7.55
2024-02-04T04:13:47.934Z,5.63
2024-02-04T04:16:15.304Z,6.40
2024-02-04T04:18:42.755Z,5.30
2024-02-04T04:21:10.555Z,6.40
2024-02-04T04:23:37.869Z,7.15
2024-02-04T04:26:08.658Z,5.70
2024-02-04T04:28:39.358Z,5.47
2024-02-04T04:31:07.096Z,5.67
2024-02-04T04:33:37.829Z,5.15
2024-02-04T04:36:25.275Z,5.33
2024-02-04T04:38:52.952Z,6.20
2024-02-04T04:41:22.365Z,6.13
2024-02-04T04:43:50.789Z,5.40
2024-02-04T04:46:18.217Z,5.15
2024-02-04T04:48:48.163Z,5.57
2024-02-04T04:51:16.447Z,5.43
2024-02-04T04:53:43.881Z,4.88
2024-02-04T04:56:11.630Z,5.20
2024-02-04T04:58:39.032Z,4.85
2024-02-04T05:01:09.647Z,5.35
2024-02-04T05:03:37.505Z,5.60
2024-02-04T05:06:08.158Z,4.60
2024-02-04T05:08:35.596Z,5.10
2024-02-04T05:11:03.696Z,5.03
2024-02-04T05:13:31.643Z,4.55
2024-02-04T05:15:59.482Z,4.45
2024-02-04T05:18:29.855Z,4.60
2024-02-04T05:20:59.211Z,4.43
2024-02-04T05:23:27.250Z,4.15
2024-02-04T05:25:55.082Z,5.15
2024-02-04T05:28:22.418Z,4.32
2024-02-04T05:30:50.348Z,4.00
2024-02-04T05:33:18.289Z,5.60
2024-02-04T05:35:47.851Z,4.53
2024-02-04T05:40:45.437Z,5.38
2024-02-04T05:43:13.598Z,7.07
2024-02-04T05:45:44.095Z,4.07
2024-02-04T05:48:19.720Z,4.63
2024-02-04T05:50:49.734Z,3.70
2024-02-04T05:53:19.998Z,3.72
2024-02-04T05:58:18.962Z,3.85
2024-02-04T06:00:51.812Z,4.25
2024-02-04T06:03:19.481Z,3.95
2024-02-04T06:05:48.610Z,4.20
2024-02-04T06:08:16.169Z,4.60
2024-02-04T06:10:43.625Z,4.20
2024-02-04T06:13:13.324Z,3.92
2024-02-04T06:15:40.575Z,4.10
2024-02-04T06:18:08.263Z,3.47
2024-02-04T06:20:36.617Z,4.63
2024-02-04T06:23:04.323Z,4.00
2024-02-04T06:25:32.289Z,4.18
2024-02-04T06:28:00.110Z,3.33
2024-02-04T06:30:27.883Z,3.53
2024-02-04T06:32:56.158Z,4.70
2024-02-04T06:35:29.139Z,5.03
2024-02-04T06:37:58.300Z,10.57
2024-02-04T06:40:29.770Z,15.67
2024-02-04T06:42:57.274Z,16.52
2024-02-04T06:45:26.955Z,18.08
2024-02-04T06:47:56.607Z,19.73
2024-02-04T06:50:24.021Z,18.90
2024-02-04T06:52:54.828Z,17.25
2024-02-04T06:55:22.545Z,18.67
2024-02-04T06:57:50.203Z,19.15
2024-02-04T07:00:19.022Z,20.13
2024-02-04T07:02:47.429Z,22.48
2024-02-04T07:05:18.664Z,20.88
2024-02-04T07:07:48.896Z,19.10
2024-02-04T07:10:22.090Z,18.73
2024-02-04T07:12:49.763Z,17.20
2024-02-04T07:15:19.546Z,18.63
2024-02-04T07:17:47.841Z,19.40
2024-02-04T07:20:17.750Z,16.95
2024-02-04T07:22:52.431Z,14.75
2024-02-04T07:25:23.596Z,17.73
2024-02-04T07:27:51.349Z,16.98
2024-02-04T07:30:18.814Z,16.42
2024-02-04T07:32:47.086Z,12.32
2024-02-04T07:35:15.383Z,15.10
2024-02-04T07:37:44.190Z,11.82
2024-02-04T07:40:12.134Z,12.43
2024-02-04T07:42:41.768Z,22.15
2024-02-04T07:45:13.055Z,12.90
2024-02-04T07:47:41.078Z,7.90
2024-02-04T07:50:12.081Z,8.65
2024-02-04T07:52:45.505Z,9.35
2024-02-04T07:55:17.205Z,13.52
2024-02-04T07:57:47.690Z,16.15
2024-02-04T08:00:16.576Z,18.10
2024-02-04T08:02:45.956Z,21.52
2024-02-04T08:05:36.671Z,25.33
2024-02-04T08:08:11.452Z,28.90
2024-02-04T08:10:39.350Z,27.23
2024-02-04T08:13:06.944Z,24.30
2024-02-04T08:15:37.201Z,27.33
2024-02-04T08:18:08.304Z,28.52
2024-02-04T08:23:07.916Z,25.70
2024-02-04T08:25:52.360Z,27.33
2024-02-04T08:28:23.459Z,27.50
2024-02-04T08:30:58.349Z,26.75
2024-02-04T08:33:32.093Z,26.27
2024-02-04T08:36:04.299Z,26.80
2024-02-04T08:38:34.732Z,25.13
2024-02-04T08:41:11.268Z,26.98
2024-02-04T08:43:39.366Z,23.83
2024-02-04T08:46:18.176Z,23.95
2024-02-04T08:48:58.628Z,25.02
2024-02-04T08:51:38.458Z,19.77
2024-02-04T08:54:18.646Z,18.80
2024-02-04T09:03:28.237Z,16.60
2024-02-04T09:05:58.414Z,18.83
2024-02-04T09:11:48.177Z,18.85
2024-02-04T09:14:15.593Z,16.35
2024-02-04T09:16:50.596Z,17.00
2024-02-04T09:19:18.371Z,14.35
2024-02-04T09:21:56.926Z,16.80
2024-02-04T09:24:27.854Z,16.10
2024-02-04T09:26:55.528Z,15.40
2024-02-04T09:29:29.342Z,14.75
2024-02-04T09:31:56.993Z,14.95
2024-02-04T09:34:30.399Z,12.50
2024-02-04T09:37:19.663Z,12.70
2024-02-04T09:39:47.004Z,11.77
2024-02-04T09:42:22.807Z,10.82
2024-02-04T09:44:50.771Z,10.00
2024-02-04T09:47:18.647Z,12.07
2024-02-04T09:49:46.422Z,10.30
2024-02-04T09:52:20.142Z,10.02
2024-02-04T09:54:51.630Z,9.55
2024-02-04T09:57:19.095Z,11.93
2024-02-04T09:59:48.506Z,9.00
2024-02-04T10:02:20.107Z,7.97
2024-02-04T10:04:49.293Z,5.20
2024-02-04T10:07:20.420Z,8.18
2024-02-04T10:09:48.169Z,8.25
2024-02-04T10:12:15.675Z,7.50
2024-02-04T10:14:43.149Z,7.30
2024-02-04T10:17:21.694Z,9.35
2024-02-04T10:19:50.178Z,8.30
2024-02-04T10:22:21.158Z,9.18
2024-02-04T10:24:49.666Z,7.73
2024-02-04T10:27:26.568Z,9.88
2024-02-04T10:30:08.658Z,8.25
2024-02-04T10:32:36.316Z,7.45
2024-02-04T10:35:06.983Z,9.60
2024-02-04T10:37:34.347Z,8.88
2024-02-04T10:40:01.902Z,9.80
2024-02-04T10:42:30.507Z,7.93
2024-02-04T10:45:03.960Z,10.18
2024-02-04T10:47:41.804Z,11.00
2024-02-04T10:50:09.948Z,12.20
2024-02-04T10:52:42.885Z,7.85
2024-02-04T10:55:14.048Z,10.65
2024-02-04T10:57:45.610Z,10.48
2024-02-04T11:00:14.393Z,9.27
2024-02-04T11:02:48.187Z,13.27
2024-02-04T11:05:18.932Z,10.93
2024-02-04T11:07:48.899Z,8.20
2024-02-04T11:10:16.350Z,7.72
2024-02-04T11:12:45.852Z,8.88
2024-02-04T11:15:18.952Z,10.70
2024-02-04T11:18:19.706Z,10.43
2024-02-04T11:20:56.084Z,7.90
2024-02-04T11:23:47.977Z,7.78
2024-02-04T11:30:53.235Z,7.30
2024-02-04T11:33:22.393Z,6.85
2024-02-04T11:36:07.186Z,7.00
2024-02-04T11:38:40.641Z,7.57
2024-02-04T11:41:09.383Z,6.72
2024-02-04T11:43:41.768Z,6.47
2024-02-04T11:46:28.090Z,7.72
2024-02-04T11:48:55.915Z,6.57
2024-02-04T11:51:25.666Z,8.38
2024-02-04T11:53:53.450Z,7.90
2024-02-04T11:56:20.958Z,7.82
2024-02-04T11:58:49.243Z,8.30
2024-02-04T12:01:17.326Z,8.18
2024-02-04T12:03:44.725Z,9.32
2024-02-04T12:06:17.863Z,9.07
2024-02-04T12:08:45.405Z,10.93
2024-02-04T12:11:13.170Z,7.80
2024-02-04T12:13:46.842Z,8.85
2024-02-04T12:16:14.598Z,11.95
2024-02-04T12:18:52.143Z,16.50
2024-02-04T12:21:29.612Z,9.13
2024-02-04T12:23:57.647Z,13.65
2024-02-04T12:26:28.285Z,17.03
2024-02-04T12:28:56.750Z,20.75
2024-02-04T12:31:30.644Z,18.67
2024-02-04T12:34:00.415Z,23.70
2024-02-04T12:36:32.479Z,27.38
2024-02-04T12:39:22.590Z,27.73
2024-02-04T12:41:52.593Z,24.15
2024-02-04T12:44:20.474Z,33.80
2024-02-04T12:46:54.741Z,32.95
2024-02-04T12:49:25.372Z,33.92
2024-02-04T12:52:18.979Z,33.00
2024-02-04T13:13:29.514Z,34.55
2024-02-04T13:15:59.192Z,34.83
2024-02-04T13:18:56.503Z,42.90
2024-02-04T13:21:44.539Z,66.60
2024-02-04T13:24:11.900Z,74.70
2024-02-04T13:27:16.718Z,99.72
2024-02-04T13:29:47.107Z,94.82
2024-02-04T13:32:17.066Z,84.90
2024-02-04T13:38:25.049Z,70.43
2024-02-04T13:40:54.551Z,67.97
2024-02-04T13:45:54.785Z,42.90
2024-02-04T13:48:23.696Z,37.58
2024-02-04T13:50:54.857Z,38.85
2024-02-04T13:53:22.434Z,34.90
2024-02-04T13:55:57.793Z,24.98
2024-02-04T13:58:27.770Z,24.40
2024-02-04T14:00:55.362Z,19.33
2024-02-04T14:03:23.642Z,18.85
2024-02-04T14:06:03.721Z,21.35
2024-02-04T14:09:07.516Z,17.38
2024-02-04T14:11:38.718Z,17.97
2024-02-04T14:21:23.668Z,17.90
2024-02-04T14:24:03.720Z,18.92
2024-02-04T14:26:43.091Z,18.02
2024-02-04T14:29:14.452Z,18.40
2024-02-04T14:31:52.054Z,19.35
2024-02-04T14:34:37.381Z,16.75
2024-02-04T14:37:24.131Z,21.70
2024-02-04T14:40:18.973Z,17.55
2024-02-04T14:43:07.891Z,17.63
2024-02-04T14:49:11.305Z,13.00
2024-02-04T14:56:16.889Z,18.50
2024-02-04T14:59:58.544Z,17.02
2024-02-04T15:02:25.924Z,15.52
2024-02-04T15:13:49.599Z,18.92
2024-02-04T15:21:03.236Z,14.52
2024-02-04T15:23:30.986Z,14.13
2024-02-04T15:26:01.171Z,13.82
2024-02-04T15:28:34.913Z,12.20
2024-02-04T15:31:02.675Z,12.40
2024-02-04T15:41:15.234Z,11.32
2024-02-04T15:43:42.470Z,11.63
2024-02-04T15:46:11.509Z,12.43
2024-02-04T15:48:42.321Z,12.68
2024-02-04T15:51:12.308Z,11.98
2024-02-04T15:53:43.153Z,11.00
2024-02-04T15:56:17.337Z,12.27
2024-02-04T15:58:48.007Z,11.90
2024-02-04T16:09:49.994Z,8.52
2024-02-04T16:12:28.406Z,8.88
2024-02-04T16:15:14.060Z,8.02
2024-02-04T16:17:42.198Z,10.07
2024-02-04T16:20:14.772Z,8.27
2024-02-04T16:22:43.654Z,7.22
2024-02-04T16:25:11.569Z,9.00
2024-02-04T16:27:39.037Z,8.52
2024-02-04T16:30:07.077Z,7.85
2024-02-04T16:32:34.819Z,10.45
2024-02-04T16:35:04.745Z,8.13
2024-02-04T16:37:32.610Z,8.55
2024-02-04T16:40:03.816Z,7.00
2024-02-04T16:46:50.491Z,6.60
2024-02-04T16:49:20.978Z,6.03
2024-02-04T16:51:53.655Z,8.60
2024-02-04T16:54:30.027Z,9.57
2024-02-04T16:57:10.224Z,7.40
2024-02-04T17:00:06.666Z,7.82
2024-02-04T17:03:49.088Z,7.18
2024-02-04T17:06:16.764Z,7.88
2024-02-04T17:08:44.280Z,7.45
2024-02-04T17:11:12.594Z,7.85
2024-02-04T17:13:40.378Z,8.38
2024-02-04T17:16:37.497Z,7.85
2024-02-04T17:19:39.032Z,7.65
2024-02-04T17:22:16.295Z,7.25
2024-02-04T17:24:51.666Z,6.28
2024-02-04T17:27:21.982Z,7.95
2024-02-04T17:29:59.711Z,10.48
2024-02-04T17:32:27.709Z,6.43
2024-02-04T17:34:59.751Z,6.28
2024-02-04T17:37:31.298Z,7.53
2024-02-04T17:39:58.922Z,6.30
2024-02-04T17:42:28.718Z,6.85
2024-02-04T17:44:59.231Z,8.70
2024-02-04T17:47:47.995Z,11.50
2024-02-04T17:50:26.982Z,13.52
2024-02-04T17:52:57.669Z,6.88
2024-02-04T17:55:25.310Z,8.77
2024-02-04T17:57:59.081Z,7.43
2024-02-04T18:00:26.460Z,6.18
2024-02-04T18:02:55.454Z,9.75
2024-02-04T18:05:31.701Z,6.05
2024-02-04T18:08:06.326Z,7.32
2024-02-04T18:10:48.826Z,8.27
2024-02-04T18:14:12.013Z,7.88
2024-02-04T18:16:41.245Z,11.40
2024-02-04T18:19:13.396Z,8.63
2024-02-04T18:21:41.506Z,7.20
2024-02-04T18:24:09.781Z,7.05
2024-02-04T18:26:43.728Z,9.18
2024-02-04T18:29:11.441Z,7.75
2024-02-04T18:31:38.851Z,9.20
2024-02-04T18:34:06.756Z,7.78
2024-02-04T18:36:36.747Z,6.13
2024-02-04T18:39:04.398Z,6.20
2024-02-04T18:42:01.732Z,6.07
2024-02-04T18:44:31.050Z,5.88
2024-02-04T18:46:58.324Z,5.75
2024-02-04T18:49:26.074Z,7.90
2024-02-04T18:51:53.390Z,5.97
2024-02-04T18:54:24.787Z,6.75
2024-02-04T18:56:52.020Z,5.03
2024-02-04T18:59:19.299Z,5.93
2024-02-04T19:01:47.155Z,4.57
2024-02-04T19:04:14.797Z,5.43
2024-02-04T19:06:42.650Z,6.75
2024-02-04T19:09:17.249Z,5.43
2024-02-04T19:11:49.052Z,4.60
2024-02-04T19:14:21.205Z,3.95
2024-02-04T19:16:48.815Z,4.68
2024-02-04T19:19:16.337Z,5.80
2024-02-04T19:21:47.941Z,4.53
2024-02-04T19:26:48.370Z,8.52
2024-02-04T19:29:21.150Z,5.47
2024-02-04T19:34:42.344Z,5.82
2024-02-04T19:35:04.781Z,5.05
2024-02-04T19:37:12.702Z,8.88
2024-02-04T19:39:42.540Z,5.88
2024-02-04T19:42:24.142Z,5.32
2024-02-04T19:44:51.814Z,4.65
2024-02-04T19:47:31.398Z,4.60
2024-02-04T19:50:04.412Z,7.88
2024-02-04T19:52:47.487Z,4.68
2024-02-04T19:55:17.343Z,5.38
2024-02-04T19:57:49.703Z,5.53
2024-02-04T20:00:50.934Z,4.93
2024-02-04T20:03:08.615Z,4.03
2024-02-04T20:05:46.044Z,3.67
2024-02-04T20:08:31.343Z,4.50
2024-02-04T20:11:10.317Z,4.68
2024-02-04T20:13:48.713Z,4.82
2024-02-04T20:16:22.980Z,4.65
2024-02-04T20:18:57.128Z,5.53
2024-02-04T20:21:51.849Z,4.97
2024-02-04T20:24:23.974Z,5.35
2024-02-04T20:26:59.040Z,4.95
2024-02-04T20:29:49.734Z,4.57
2024-02-04T20:32:45.749Z,4.13
2024-02-04T20:35:56.657Z,6.20
2024-02-04T20:38:15.169Z,5.72
2024-02-04T20:40:48.404Z,4.18
2024-02-04T20:43:24.678Z,5.55
2024-02-04T20:46:06.927Z,5.85
2024-02-04T20:48:37.859Z,4.70
2024-02-04T20:51:26.223Z,4.72
2024-02-04T20:53:58.236Z,5.57
2024-02-04T20:56:36.665Z,4.38
2024-02-04T20:59:34.117Z,5.10
2024-02-04T21:02:34.286Z,5.18
2024-02-04T21:05:08.575Z,5.00
2024-02-04T21:08:14.639Z,4.28
2024-02-04T21:10:54.949Z,4.25
2024-02-04T21:13:25.184Z,5.28
2024-02-04T21:15:55.037Z,5.13
2024-02-04T21:18:28.013Z,4.78
2024-02-04T21:20:55.880Z,4.85
2024-02-04T21:23:28.743Z,5.32
2024-02-04T21:26:18.852Z,6.93
2024-02-04T22:08:44.583Z,4.70
2024-02-04T22:11:11.847Z,3.90
2024-02-04T23:03:48.204Z,6.13
2024-02-04T23:06:16.739Z,6.40
2024-02-04T23:16:32.034Z,4.65
2024-02-04T23:37:09.573Z,5.80
